Fengtai, China
Current Conditions -  °F | °C
As of 11:00 PM on Sunday 21 Dec 2014 (Local Time) from ZBAA Reporting Station
Clear Clear  
Wind Chill: 27°   Ceiling: Unl
Heat Index: 27°   Visibility: 4mi
Dew Point:   Wind: 2mph
Humidity: 40%   Direction: NA
Pressure: 30.21"   Gusts: NA
Location:  39.9°N, 116.2°E
Report Text: ZBAA 211500Z VRB01MPS 6000 NSC M03/M15 Q1023 NOSIG
Loading
Personal Weather Stations






























Interactive Weather Map New forecast layout! Learn more

10-Day Weather Forecast

Advertisements
Track Severe Weather on mobile